Fedora — SLKU — position and weather

sailwx.info

Track history (hours):
 
Tides and Currents Weather Stations Pressure Air Temp Water Temp Dewpoint Dewpoint Depression Visibility Wind Speed Wind Dir Waves Ship Positions

Fedora

Last reported at 2014-Sep-01 20:33 UTC. Time now 2014-Sep-01 21:06 UTC.
Position N 37°08' W 009°23'.

Length 228 m; draft 8.3 m.

Type: Cargo ship. MMSI: 266259000.

Date/timePositionNaut miles runAvg speedWind from/ knotsBaromVisibWave heightAir tempDewpointWater temp
2014-Sep-01 20:33N 37°08' W 009°23'1414.1
2014-Sep-01 19:33N 36°55' W 009°19'1413.9
2014-Sep-01 18:33N 36°45' W 009°06'1514.7
2014-Sep-01 17:33N 36°40' W 008°49'1414.3
2014-Sep-01 16:33N 36°36' W 008°32'2014.9
2014-Sep-01 15:12N 36°29' W 008°08'1015.0
2014-Sep-01 14:34N 36°26' W 007°57'12314.5
2014-Sep-01 06:03N 35°59' W 005°28'18614.4
2014-Aug-31 17:09N 36°29' W 001°41'1014.9
2014-Aug-31 16:29N 36°30' W 001°28'23814.8
2014-Aug-31 00:27N 37°01' E 003°26'1915.4
2014-Aug-30 23:15N 37°02' E 003°49'1014.9
2014-Aug-30 22:33N 37°03' E 004°02'1312.7
2014-Aug-30 21:32N 36°59' E 004°17'1414.1
2014-Aug-30 20:33N 36°59' E 004°35'1615.1
2014-Aug-30 19:30N 36°58' E 004°55'1414.8
2014-Aug-30 18:34N 36°57' E 005°12'1414.4
2014-Aug-30 17:33N 36°56' E 005°30'1514.0
2014-Aug-30 16:31N 36°54' E 005°48'7 6.7
2014-Aug-30 15:30N 36°49' E 005°54'0 0.0
2014-Aug-30 11:09N 36°49' E 005°54'0 0.0
2014-Aug-30 08:30N 36°49' E 005°54'0 0.0
2014-Aug-30 07:27N 36°49' E 005°54'0 0.0
2014-Aug-30 06:30N 36°49' E 005°54'0 0.0
2014-Aug-30 05:06N 36°49' E 005°54'0 0.0
2014-Aug-30 04:30N 36°49' E 005°54'0 0.0
2014-Aug-30 03:30N 36°49' E 005°54'0 0.0
2014-Aug-30 02:33N 36°49' E 005°54'0 0.0
2014-Aug-29 23:18N 36°49' E 005°54'0 0.0
2014-Aug-29 22:33N 36°49' E 005°54'2 1.6
2014-Aug-29 21:33N 36°51' E 005°55'6 5.9
2014-Aug-29 20:33N 36°56' E 005°59'9 9.1
2014-Aug-29 19:33N 37°03' E 006°05'10 9.7
2014-Aug-29 18:33N 37°10' E 006°14'1514.9
2014-Aug-29 17:32N 37°16' E 006°31'1515.4
2014-Aug-29 16:32N 37°20' E 006°50'1515.6
2014-Aug-29 15:33N 37°23' E 007°09'2115.1
2014-Aug-29 14:12N 37°26' E 007°35'1015.6
2014-Aug-29 13:33N 37°28' E 007°47'1515.3
2014-Aug-29 12:33N 37°30' E 008°06'1515.4
2014-Aug-29 11:33N 37°33' E 008°25'1615.8
2014-Aug-29 10:33N 37°35' E 008°45'1514.9
2014-Aug-29 09:33N 37°36' E 009°04'1614.8
2014-Aug-29 08:29N 37°37' E 009°24'1414.9
2014-Aug-29 07:33N 37°37' E 009°41'1514.9
2014-Aug-29 06:34N 37°38' E 009°60'1514.5
2014-Aug-29 05:33N 37°38' E 010°18'4414.8
2014-Aug-29 02:33N 37°28' E 011°13'1915.3
2014-Aug-29 01:19N 37°18' E 011°33'1214.9
2014-Aug-29 00:29N 37°11' E 011°46'1414.8
2014-Aug-28 23:34N 37°04' E 012°01'1515.1
2014-Aug-28 22:34N 37°00' E 012°19'1515.1
2014-Aug-28 21:34N 36°56' E 012°37'1514.7
2014-Aug-28 20:34N 36°53' E 012°55'1514.6
2014-Aug-28 19:34N 36°49' E 013°13'1414.5
2014-Aug-28 18:34N 36°45' E 013°30'1514.7
2014-Aug-28 17:34N 36°42' E 013°48'1515.0
2014-Aug-28 16:34N 36°37' E 014°06'1515.1
2014-Aug-28 15:34N 36°33' E 014°24'1515.1
2014-Aug-28 14:33N 36°30' E 014°43'1514.8
2014-Aug-28 13:34N 36°33' E 015°01'  
2014-Aug-23 03:33N 37°54' E 023°36'5 5.1
2014-Aug-23 02:33N 37°50' E 023°40'8 7.9
2014-Aug-23 01:33N 37°42' E 023°45'1110.6
2014-Aug-23 00:31N 37°34' E 023°54'1010.8
2014-Aug-22 23:33N 37°28' E 024°04'1111.1
2014-Aug-22 22:33N 37°18' E 024°10'1111.1
2014-Aug-22 21:33N 37°08' E 024°18'1111.1
2014-Aug-22 20:33N 37°00' E 024°27'  
Track history (hours):
 
Tides and Currents Weather Stations Pressure Air Temp Water Temp Dewpoint Dewpoint Depression Visibility Wind Speed Wind Dir Waves Ship Positions

Fedora

Last reported at 2014-Sep-01 20:33 UTC. Time now 2014-Sep-01 21:06 UTC.
Position N 37°08' W 009°23'.

Length 228 m; draft 8.3 m.

Type: Cargo ship. MMSI: 266259000.

Date/timePositionNaut miles runAvg speedWind from/ knotsBaromVisibWave heightAir tempDewpointWater temp
2014-Sep-01 20:33N 37°08' W 009°23'1414.1
2014-Sep-01 19:33N 36°55' W 009°19'1413.9
2014-Sep-01 18:33N 36°45' W 009°06'1514.7
2014-Sep-01 17:33N 36°40' W 008°49'1414.3
2014-Sep-01 16:33N 36°36' W 008°32'2014.9
2014-Sep-01 15:12N 36°29' W 008°08'1015.0
2014-Sep-01 14:34N 36°26' W 007°57'12314.5
2014-Sep-01 06:03N 35°59' W 005°28'18614.4
2014-Aug-31 17:09N 36°29' W 001°41'1014.9
2014-Aug-31 16:29N 36°30' W 001°28'23814.8
2014-Aug-31 00:27N 37°01' E 003°26'1915.4
2014-Aug-30 23:15N 37°02' E 003°49'1014.9
2014-Aug-30 22:33N 37°03' E 004°02'1312.7
2014-Aug-30 21:32N 36°59' E 004°17'1414.1
2014-Aug-30 20:33N 36°59' E 004°35'1615.1
2014-Aug-30 19:30N 36°58' E 004°55'1414.8
2014-Aug-30 18:34N 36°57' E 005°12'1414.4
2014-Aug-30 17:33N 36°56' E 005°30'1514.0
2014-Aug-30 16:31N 36°54' E 005°48'7 6.7
2014-Aug-30 15:30N 36°49' E 005°54'0 0.0
2014-Aug-30 11:09N 36°49' E 005°54'0 0.0
2014-Aug-30 08:30N 36°49' E 005°54'0 0.0
2014-Aug-30 07:27N 36°49' E 005°54'0 0.0
2014-Aug-30 06:30N 36°49' E 005°54'0 0.0
2014-Aug-30 05:06N 36°49' E 005°54'0 0.0
2014-Aug-30 04:30N 36°49' E 005°54'0 0.0
2014-Aug-30 03:30N 36°49' E 005°54'0 0.0
2014-Aug-30 02:33N 36°49' E 005°54'0 0.0
2014-Aug-29 23:18N 36°49' E 005°54'0 0.0
2014-Aug-29 22:33N 36°49' E 005°54'2 1.6
2014-Aug-29 21:33N 36°51' E 005°55'6 5.9
2014-Aug-29 20:33N 36°56' E 005°59'9 9.1
2014-Aug-29 19:33N 37°03' E 006°05'10 9.7
2014-Aug-29 18:33N 37°10' E 006°14'1514.9
2014-Aug-29 17:32N 37°16' E 006°31'1515.4
2014-Aug-29 16:32N 37°20' E 006°50'1515.6
2014-Aug-29 15:33N 37°23' E 007°09'2115.1
2014-Aug-29 14:12N 37°26' E 007°35'1015.6
2014-Aug-29 13:33N 37°28' E 007°47'1515.3
2014-Aug-29 12:33N 37°30' E 008°06'1515.4
2014-Aug-29 11:33N 37°33' E 008°25'1615.8
2014-Aug-29 10:33N 37°35' E 008°45'1514.9
2014-Aug-29 09:33N 37°36' E 009°04'1614.8
2014-Aug-29 08:29N 37°37' E 009°24'1414.9
2014-Aug-29 07:33N 37°37' E 009°41'1514.9
2014-Aug-29 06:34N 37°38' E 009°60'1514.5
2014-Aug-29 05:33N 37°38' E 010°18'4414.8
2014-Aug-29 02:33N 37°28' E 011°13'1915.3
2014-Aug-29 01:19N 37°18' E 011°33'1214.9
2014-Aug-29 00:29N 37°11' E 011°46'1414.8
2014-Aug-28 23:34N 37°04' E 012°01'1515.1
2014-Aug-28 22:34N 37°00' E 012°19'1515.1
2014-Aug-28 21:34N 36°56' E 012°37'1514.7
2014-Aug-28 20:34N 36°53' E 012°55'1514.6
2014-Aug-28 19:34N 36°49' E 013°13'1414.5
2014-Aug-28 18:34N 36°45' E 013°30'1514.7
2014-Aug-28 17:34N 36°42' E 013°48'1515.0
2014-Aug-28 16:34N 36°37' E 014°06'1515.1
2014-Aug-28 15:34N 36°33' E 014°24'1515.1
2014-Aug-28 14:33N 36°30' E 014°43'1514.8
2014-Aug-28 13:34N 36°33' E 015°01'  
2014-Aug-23 03:33N 37°54' E 023°36'5 5.1
2014-Aug-23 02:33N 37°50' E 023°40'8 7.9
2014-Aug-23 01:33N 37°42' E 023°45'1110.6
2014-Aug-23 00:31N 37°34' E 023°54'1010.8
2014-Aug-22 23:33N 37°28' E 024°04'1111.1
2014-Aug-22 22:33N 37°18' E 024°10'1111.1
2014-Aug-22 21:33N 37°08' E 024°18'1111.1
2014-Aug-22 20:33N 37°00' E 024°27'  

Dump ship's entire track history